Time;durP1;ratioP1;P1;durP2;ratioP2;P2;SDS_P1;SDS_P2;PMS_P1;PMS_P2;Temp;Humidity;BMP_temperature;BMP_pressure;BME280_temperature;BME280_humidity;BME280_pressure;Samples;Min_cycle;Max_cycle;Signal;HPM_P1;HPM_P2
2022/07/02 00:01:52;;;;;;;2.37;1.90;;;14.50;99.90;;;;;;5074925;28;20204;-59
2022/07/02 00:04:24;;;;;;;4.30;2.00;;;14.50;99.90;;;;;;5074658;28;20220;-59
2022/07/02 00:06:53;;;;;;;2.23;2.00;;;14.50;99.90;;;;;;5073357;28;20290;-59
2022/07/02 00:09:22;;;;;;;2.47;1.70;;;14.50;99.90;;;;;;5073093;28;20226;-58
2022/07/02 00:11:51;;;;;;;3.83;1.80;;;14.50;99.90;;;;;;5074292;28;20283;-59
2022/07/02 00:14:21;;;;;;;2.03;1.63;;;14.50;99.90;;;;;;5074322;28;20203;-59
2022/07/02 00:16:49;;;;;;;4.73;1.90;;;14.40;99.90;;;;;;5074664;28;20658;-59
2022/07/02 00:19:18;;;;;;;2.10;1.77;;;14.30;99.90;;;;;;5074327;28;20188;-59
2022/07/02 00:21:47;;;;;;;2.23;2.03;;;14.30;99.90;;;;;;5072983;28;20287;-59
2022/07/02 00:24:16;;;;;;;3.53;1.90;;;14.30;99.90;;;;;;5074142;28;20188;-59
2022/07/02 00:26:54;;;;;;;4.13;2.00;;;14.30;99.90;;;;;;5074208;28;20279;-59
2022/07/02 00:29:30;;;;;;;3.13;1.90;;;14.30;99.90;;;;;;5074165;28;20196;-59
2022/07/02 00:32:01;;;;;;;1.90;1.80;;;14.30;99.90;;;;;;5072787;28;20275;-60
2022/07/02 00:34:33;;;;;;;1.93;1.83;;;14.30;99.90;;;;;;5073856;28;20215;-59
2022/07/02 00:37:03;;;;;;;1.93;1.83;;;14.30;99.90;;;;;;5074016;28;20228;-59
2022/07/02 00:39:31;;;;;;;1.90;1.80;;;14.30;99.90;;;;;;5072724;28;20196;-59
2022/07/02 00:42:02;;;;;;;5.13;2.00;;;14.30;99.90;;;;;;5072611;28;20747;-59
2022/07/02 00:44:32;;;;;;;3.47;1.67;;;14.30;99.90;;;;;;5074185;28;20180;-59
2022/07/02 00:47:05;;;;;;;1.80;1.70;;;14.40;99.90;;;;;;5073625;28;20215;-59
2022/07/02 00:49:34;;;;;;;1.77;1.67;;;14.40;99.90;;;;;;5073734;28;20575;-59
2022/07/02 00:52:03;;;;;;;1.83;1.73;;;14.40;99.90;;;;;;5074106;28;20705;-59
2022/07/02 00:54:32;;;;;;;1.60;1.60;;;14.50;99.90;;;;;;5073863;28;20597;-59
2022/07/02 00:57:00;;;;;;;1.97;1.87;;;14.50;99.90;;;;;;5073646;28;20249;-59
2022/07/02 00:59:30;;;;;;;1.80;1.70;;;14.50;99.90;;;;;;5073897;28;20215;-59
2022/07/02 01:02:01;;;;;;;3.37;2.10;;;14.50;99.90;;;;;;5073638;28;20204;-59
2022/07/02 01:04:30;;;;;;;2.20;1.70;;;14.50;99.90;;;;;;5073391;28;20231;-59
2022/07/02 01:10:29;;;;;;;2.30;2.10;;;14.60;99.90;;;;;;5073425;28;20271;-60
2022/07/02 01:12:58;;;;;;;2.23;1.67;;;14.60;99.90;;;;;;5072359;28;20751;-59
2022/07/02 01:15:26;;;;;;;3.90;1.90;;;14.60;99.90;;;;;;5073222;28;20295;-59
2022/07/02 01:17:56;;;;;;;3.03;1.93;;;14.50;99.90;;;;;;5073615;28;20210;-59
2022/07/02 01:20:24;;;;;;;4.67;2.00;;;14.60;99.90;;;;;;5072160;28;20295;-59
2022/07/02 01:22:54;;;;;;;3.67;1.73;;;14.60;99.90;;;;;;5073355;28;20200;-59
2022/07/02 01:25:23;;;;;;;2.50;1.90;;;14.60;99.90;;;;;;5070599;28;20239;-60
2022/07/02 01:27:51;;;;;;;2.20;2.10;;;14.60;99.90;;;;;;5071946;28;20589;-59
2022/07/02 01:30:20;;;;;;;2.40;2.20;;;14.60;99.90;;;;;;5073466;28;20679;-59
2022/07/02 01:32:48;;;;;;;4.33;1.80;;;14.60;99.90;;;;;;5073322;28;20206;-59
2022/07/02 01:35:16;;;;;;;2.53;2.33;;;14.60;99.90;;;;;;5072816;28;20222;-59
2022/07/02 01:37:44;;;;;;;2.50;2.00;;;14.60;99.90;;;;;;5073165;28;20192;-59
2022/07/02 01:40:14;;;;;;;5.17;2.20;;;14.60;99.90;;;;;;5071797;28;20222;-59
2022/07/02 01:42:43;;;;;;;3.83;2.07;;;14.70;99.90;;;;;;5073216;28;20803;-59
2022/07/02 01:45:11;;;;;;;2.47;2.10;;;14.70;99.90;;;;;;5073368;28;20603;-59
2022/07/02 01:47:40;;;;;;;2.67;2.20;;;14.70;99.90;;;;;;5073298;28;20280;-58
2022/07/02 01:50:09;;;;;;;2.53;1.97;;;14.80;99.90;;;;;;5072935;28;20283;-59
2022/07/02 01:52:37;;;;;;;5.60;2.27;;;14.80;99.90;;;;;;5073437;28;20249;-59
2022/07/02 01:55:06;;;;;;;2.10;1.90;;;14.70;99.90;;;;;;5072953;28;20216;-59
2022/07/02 01:57:36;;;;;;;2.17;2.07;;;14.80;99.90;;;;;;5073362;28;20678;-59
2022/07/02 02:00:06;;;;;;;2.80;2.10;;;14.80;99.90;;;;;;5074789;28;20192;-58
2022/07/02 02:02:36;;;;;;;5.30;2.37;;;14.80;99.90;;;;;;5077071;28;20222;-58
2022/07/02 02:05:04;;;;;;;2.40;2.20;;;14.80;99.90;;;;;;5075511;28;20258;-60
2022/07/02 02:12:11;;;;;;;2.77;2.27;;;14.70;99.90;;;;;;5056963;28;20184;-59
2022/07/02 02:14:41;;;;;;;3.87;2.03;;;14.70;99.90;;;;;;5056569;28;20223;-58
2022/07/02 02:17:10;;;;;;;2.07;2.07;;;14.70;99.90;;;;;;5056875;28;20270;-59
2022/07/02 02:19:38;;;;;;;5.60;2.37;;;14.70;99.90;;;;;;5055366;28;20220;-59
2022/07/02 02:22:10;;;;;;;3.47;2.17;;;14.70;99.90;;;;;;5056905;28;20289;-60
2022/07/02 02:24:38;;;;;;;2.10;2.00;;;14.70;99.90;;;;;;5073346;28;20271;-59
2022/07/02 02:27:08;;;;;;;2.40;2.20;;;14.70;99.90;;;;;;5076775;28;20528;-60
2022/07/02 02:29:37;;;;;;;3.17;2.40;;;14.70;99.90;;;;;;5075205;28;20188;-60
2022/07/02 02:32:07;;;;;;;5.13;2.10;;;14.70;99.90;;;;;;5075619;28;20283;-60
2022/07/02 02:34:36;;;;;;;2.67;2.37;;;14.70;99.90;;;;;;5076032;28;20667;-59
2022/07/02 02:37:05;;;;;;;7.07;2.47;;;14.70;99.90;;;;;;5076355;28;20624;-59
2022/07/02 02:39:34;;;;;;;2.30;2.10;;;14.70;99.90;;;;;;5076150;28;20205;-60
2022/07/02 02:42:02;;;;;;;2.23;2.03;;;14.70;99.90;;;;;;5076362;28;20219;-60
2022/07/02 02:44:33;;;;;;;6.97;2.20;;;14.70;99.90;;;;;;5074915;28;20199;-59
2022/07/02 02:47:02;;;;;;;3.00;2.37;;;14.70;99.90;;;;;;5056380;28;20212;-59
2022/07/02 02:49:31;;;;;;;1.90;1.80;;;14.70;99.90;;;;;;5056162;28;20215;-60
2022/07/02 02:52:00;;;;;;;3.70;2.17;;;14.70;99.90;;;;;;5056229;28;20196;-59
2022/07/02 02:54:28;;;;;;;4.27;2.17;;;14.70;99.90;;;;;;5072257;28;20269;-59
2022/07/02 02:56:56;;;;;;;2.57;2.37;;;14.70;99.90;;;;;;5074555;28;20278;-59
2022/07/02 02:59:25;;;;;;;3.73;2.30;;;14.70;99.90;;;;;;5076019;28;20195;-59
2022/07/02 03:01:54;;;;;;;4.50;2.30;;;14.70;99.90;;;;;;5075806;28;20199;-59
2022/07/02 03:04:22;;;;;;;4.30;2.27;;;14.70;99.90;;;;;;5075809;28;20263;-59
2022/07/02 03:11:10;;;;;;;2.57;2.30;;;14.70;99.90;;;;;;5075998;28;20551;-59
2022/07/02 03:13:38;;;;;;;2.37;2.10;;;14.70;99.90;;;;;;5076015;28;20206;-59
2022/07/02 03:16:07;;;;;;;3.53;2.37;;;14.70;99.90;;;;;;5075444;28;20295;-59
2022/07/02 03:18:35;;;;;;;5.10;2.33;;;14.70;99.90;;;;;;5072101;28;20247;-59
2022/07/02 03:21:06;;;;;;;2.47;2.20;;;14.70;99.90;;;;;;5055591;28;20189;-59
2022/07/02 03:23:34;;;;;;;3.80;2.10;;;14.70;99.90;;;;;;5069835;28;20612;-59
2022/07/02 03:26:02;;;;;;;4.70;2.23;;;14.70;99.90;;;;;;5075566;28;20263;-60
2022/07/02 03:28:32;;;;;;;2.60;2.13;;;14.70;99.90;;;;;;5075479;28;20227;-59
2022/07/02 03:31:01;;;;;;;3.47;2.20;;;14.70;99.90;;;;;;5075760;28;20269;-59
2022/07/02 03:33:29;;;;;;;3.43;2.33;;;14.70;99.90;;;;;;5075417;28;20220;-59
2022/07/02 03:35:58;;;;;;;2.27;2.07;;;14.70;99.90;;;;;;5074959;28;20251;-59
2022/07/02 03:38:26;;;;;;;4.57;2.10;;;14.70;99.90;;;;;;5074023;28;20196;-59
2022/07/02 03:40:54;;;;;;;2.27;2.17;;;14.70;99.90;;;;;;5075183;28;20216;-59
2022/07/02 03:43:23;;;;;;;3.03;2.27;;;14.70;99.90;;;;;;5073787;28;20280;-59
2022/07/02 03:45:53;;;;;;;3.60;2.17;;;14.70;99.90;;;;;;5075120;28;20192;-59
2022/07/02 03:48:21;;;;;;;2.37;2.17;;;14.60;99.90;;;;;;5075270;28;20279;-60
2022/07/02 03:50:49;;;;;;;3.57;2.17;;;14.60;99.90;;;;;;5074831;28;20188;-59
2022/07/02 03:53:18;;;;;;;2.50;2.30;;;14.50;99.90;;;;;;5075036;28;20275;-59
2022/07/02 03:55:47;;;;;;;2.60;2.40;;;14.50;99.90;;;;;;5073473;28;20295;-60
2022/07/02 03:58:15;;;;;;;3.80;2.30;;;14.40;99.90;;;;;;5074844;28;20200;-59
2022/07/02 04:00:44;;;;;;;2.40;2.20;;;14.30;99.90;;;;;;5074694;28;20203;-59
2022/07/02 04:03:39;;;;;;;3.83;2.60;;;14.30;99.90;;;;;;5064794;28;20209;-59
2022/07/02 04:06:08;;;;;;;2.57;2.37;;;14.20;99.90;;;;;;5053748;28;20204;-59
2022/07/02 04:13:28;;;;;;;3.93;2.13;;;14.10;99.90;;;;;;5060078;28;20225;-59
2022/07/02 04:15:57;;;;;;;5.17;2.10;;;14.00;99.90;;;;;;5073143;28;20548;-59
2022/07/02 04:18:25;;;;;;;3.40;2.23;;;13.90;99.90;;;;;;5072850;28;20623;-59
2022/07/02 04:20:55;;;;;;;2.90;2.23;;;13.90;99.90;;;;;;5072949;28;20224;-59
2022/07/02 04:23:24;;;;;;;3.50;2.40;;;13.80;99.90;;;;;;5073611;28;20196;-59
2022/07/02 04:25:52;;;;;;;3.50;2.10;;;13.80;99.90;;;;;;5073091;28;20219;-59
2022/07/02 04:28:20;;;;;;;2.77;2.50;;;13.70;99.90;;;;;;5073983;28;20271;-59
2022/07/02 04:30:49;;;;;;;5.27;2.77;;;13.70;99.90;;;;;;5074275;28;20188;-59
2022/07/02 04:33:17;;;;;;;2.37;2.33;;;13.70;99.90;;;;;;5074148;28;20224;-59
2022/07/02 04:35:45;;;;;;;2.50;2.40;;;13.70;99.90;;;;;;5074096;28;20228;-59
2022/07/02 04:38:15;;;;;;;4.63;2.83;;;13.70;99.90;;;;;;5074182;28;20275;-59
2022/07/02 04:40:43;;;;;;;4.13;2.77;;;13.70;99.90;;;;;;5074294;28;20196;-59
2022/07/02 04:43:12;;;;;;;3.30;3.00;;;13.80;99.90;;;;;;5073836;28;20291;-59
2022/07/02 04:45:42;;;;;;;3.50;2.90;;;13.80;99.90;;;;;;5073919;28;20194;-60
2022/07/02 04:48:11;;;;;;;3.43;2.80;;;13.90;99.90;;;;;;5056314;28;20196;-59
2022/07/02 04:50:40;;;;;;;3.03;2.43;;;13.90;99.90;;;;;;5073746;28;20199;-60
2022/07/02 04:53:08;;;;;;;4.57;2.60;;;13.90;99.90;;;;;;5073830;28;20207;-59
2022/07/02 04:55:38;;;;;;;4.87;2.43;;;14.00;99.90;;;;;;5073324;28;20295;-59
2022/07/02 04:58:06;;;;;;;5.50;2.57;;;14.10;99.90;;;;;;5072351;28;20278;-59
2022/07/02 05:00:34;;;;;;;6.20;2.57;;;14.10;99.90;;;;;;5073501;28;20614;-59
2022/07/02 05:03:03;;;;;;;2.83;2.63;;;14.20;99.90;;;;;;5073393;28;20382;-59
2022/07/02 05:06:09;;;;;;;2.80;2.60;;;14.30;99.90;;;;;;5071815;28;20238;-60
2022/07/02 05:12:57;;;;;;;2.90;2.40;;;14.50;99.90;;;;;;5053170;28;20227;-59
2022/07/02 05:15:26;;;;;;;2.77;2.40;;;14.60;99.90;;;;;;5051913;28;20223;-59
2022/07/02 05:17:54;;;;;;;2.93;2.47;;;14.70;99.90;;;;;;5053065;28;20271;-59
2022/07/02 05:20:23;;;;;;;3.23;2.53;;;14.80;99.90;;;;;;5073165;28;20250;-60
2022/07/02 05:22:51;;;;;;;2.37;2.23;;;14.90;99.90;;;;;;5073448;28;20188;-60
2022/07/02 05:25:20;;;;;;;8.73;2.83;;;15.00;99.90;;;;;;5073484;28;20612;-60
2022/07/02 05:27:48;;;;;;;2.50;2.30;;;15.10;99.90;;;;;;5072100;28;20559;-59
2022/07/02 05:30:18;;;;;;;3.87;2.63;;;15.20;99.90;;;;;;5073275;28;20226;-59
2022/07/02 05:32:46;;;;;;;3.57;2.47;;;15.30;99.90;;;;;;5072745;28;20224;-59
2022/07/02 05:35:14;;;;;;;3.83;2.20;;;15.40;99.90;;;;;;5055751;28;20246;-60
2022/07/02 05:37:43;;;;;;;5.97;2.40;;;15.50;99.90;;;;;;5073164;28;20211;-59
2022/07/02 05:40:12;;;;;;;2.63;2.30;;;15.50;99.90;;;;;;5072894;28;20227;-60
2022/07/02 05:42:41;;;;;;;8.07;2.90;;;15.60;99.90;;;;;;5073384;28;20543;-61
2022/07/02 05:45:10;;;;;;;3.77;2.13;;;15.80;99.90;;;;;;5072384;28;20279;-61
2022/07/02 05:47:40;;;;;;;4.37;2.20;;;15.90;99.90;;;;;;5060537;28;20220;-61
2022/07/02 05:50:09;;;;;;;2.40;2.20;;;16.00;99.90;;;;;;5072655;28;20292;-59
2022/07/02 05:52:37;;;;;;;4.37;2.10;;;16.10;99.90;;;;;;5073002;28;20310;-61
2022/07/02 05:55:06;;;;;;;4.87;2.10;;;16.30;99.90;;;;;;5071321;28;20200;-61
2022/07/02 05:57:35;;;;;;;2.23;1.90;;;16.40;99.90;;;;;;5072020;28;20306;-61
2022/07/02 06:00:04;;;;;;;5.00;2.50;;;16.50;99.90;;;;;;5071525;28;20211;-61
2022/07/02 06:02:33;;;;;;;3.00;2.00;;;16.70;99.90;;;;;;5071032;28;20265;-61
2022/07/02 06:08:01;;;;;;;5.20;1.73;;;16.90;99.90;;;;;;5071164;28;20238;-61
2022/07/02 06:10:29;;;;;;;2.00;1.80;;;16.90;99.90;;;;;;5068813;28;20187;-61
2022/07/02 06:12:57;;;;;;;2.03;1.93;;;17.00;99.90;;;;;;5072863;28;20279;-60
2022/07/02 06:15:26;;;;;;;3.83;1.67;;;17.20;99.90;;;;;;5072878;28;20228;-60
2022/07/02 06:17:58;;;;;;;1.90;1.77;;;17.30;99.90;;;;;;5071472;28;20217;-60
2022/07/02 06:20:29;;;;;;;2.67;1.83;;;17.40;99.90;;;;;;5072705;28;20196;-59
2022/07/02 06:23:38;;;;;;;3.17;1.77;;;17.50;99.90;;;;;;5072892;28;20196;-60
2022/07/02 06:26:11;;;;;;;3.37;1.67;;;17.70;99.90;;;;;;5072670;28;20192;-59
2022/07/02 06:28:39;;;;;;;4.33;1.67;;;17.90;99.90;;;;;;5071631;28;20524;-59
2022/07/02 06:31:07;;;;;;;5.40;1.80;;;18.00;99.90;;;;;;5071243;28;20278;-59
2022/07/02 06:33:36;;;;;;;2.00;1.90;;;18.10;99.90;;;;;;5072800;28;20607;-60
2022/07/02 06:36:07;;;;;;;2.03;1.70;;;18.20;99.90;;;;;;5072460;28;20279;-59
2022/07/02 06:38:35;;;;;;;3.20;1.80;;;18.30;99.90;;;;;;5071368;28;20181;-60
2022/07/02 06:42:18;;;;;;;4.50;2.17;;;18.30;99.90;;;;;;5072565;28;20241;-60
2022/07/02 06:43:58;;;;;;;1.73;1.63;;;18.40;99.90;;;;;;5072427;28;20285;-60
2022/07/02 06:46:26;;;;;;;2.67;1.70;;;18.50;99.90;;;;;;5076059;28;20660;-59
2022/07/02 06:48:55;;;;;;;2.10;1.27;;;18.50;99.90;;;;;;5076766;28;20194;-59
2022/07/02 06:51:24;;;;;;;2.43;1.37;;;18.60;99.90;;;;;;5076084;28;20188;-60
2022/07/02 06:53:59;;;;;;;1.93;1.50;;;18.50;99.90;;;;;;5076231;28;20192;-60
2022/07/02 06:56:31;;;;;;;1.60;1.50;;;18.60;99.90;;;;;;5075849;28;20215;-59
2022/07/02 06:59:00;;;;;;;1.77;1.30;;;18.70;99.90;;;;;;5075923;28;20192;-59
2022/07/02 07:01:28;;;;;;;6.13;1.40;;;18.80;99.90;;;;;;5076123;28;20247;-60
2022/07/02 07:03:57;;;;;;;1.50;1.20;;;18.90;99.90;;;;;;5074587;28;20762;-59
2022/07/02 07:06:27;;;;;;;2.20;1.20;;;19.00;99.90;;;;;;5075963;28;20245;-59
2022/07/02 07:08:55;;;;;;;3.67;1.50;;;19.20;99.90;;;;;;5076054;28;20274;-60
2022/07/02 07:11:23;;;;;;;7.77;1.93;;;19.30;99.90;;;;;;5075869;28;20301;-58
2022/07/02 07:13:52;;;;;;;16.43;2.80;;;19.40;99.90;;;;;;5067400;28;20759;-58
2022/07/02 07:16:20;;;;;;;1.30;1.10;;;19.50;99.90;;;;;;5065974;28;20870;-58
2022/07/02 07:18:50;;;;;;;2.60;1.00;;;19.70;99.90;;;;;;5075983;28;20712;-58
2022/07/02 07:21:18;;;;;;;1.13;1.03;;;19.80;99.90;;;;;;5073861;28;20180;-58
2022/07/02 07:23:50;;;;;;;1.57;1.00;;;19.80;99.90;;;;;;5075407;28;20631;-58
2022/07/02 07:26:19;;;;;;;0.97;0.93;;;20.00;99.90;;;;;;5074158;28;20280;-58
2022/07/02 07:28:47;;;;;;;1.80;1.20;;;20.20;99.90;;;;;;5075374;28;20212;-59
2022/07/02 07:31:19;;;;;;;1.57;1.03;;;20.30;99.90;;;;;;5073972;28;20231;-59
2022/07/02 07:33:48;;;;;;;2.93;1.00;;;20.40;99.90;;;;;;5060364;28;20196;-58
2022/07/02 07:36:18;;;;;;;1.60;1.27;;;20.40;99.90;;;;;;5059655;28;20196;-58
2022/07/02 07:38:46;;;;;;;3.60;1.13;;;20.60;99.90;;;;;;5074574;28;20706;-58
2022/07/02 07:41:17;;;;;;;1.23;1.17;;;20.60;99.90;;;;;;5075411;28;20191;-59
2022/07/02 07:43:45;;;;;;;2.27;1.33;;;20.70;99.90;;;;;;5075227;28;20203;-58
2022/07/02 07:46:13;;;;;;;1.93;1.10;;;20.80;99.90;;;;;;5074959;28;20286;-58
2022/07/02 07:48:42;;;;;;;1.10;1.10;;;20.80;99.90;;;;;;5075015;28;20250;-59
2022/07/02 07:51:13;;;;;;;1.43;1.20;;;20.70;99.90;;;;;;5075012;28;20691;-58
2022/07/02 07:53:43;;;;;;;2.60;1.30;;;21.00;99.90;;;;;;5075301;28;20242;-58
2022/07/02 07:56:12;;;;;;;11.40;2.00;;;21.30;99.90;;;;;;5074247;28;20627;-59
2022/07/02 07:58:45;;;;;;;3.37;1.20;;;21.40;99.90;;;;;;5054762;28;20193;-59
2022/07/02 08:01:14;;;;;;;1.90;1.33;;;21.50;99.90;;;;;;5069658;28;20235;-58
2022/07/02 08:03:42;;;;;;;3.93;1.20;;;21.60;99.90;;;;;;5073934;28;20244;-58
2022/07/02 08:06:10;;;;;;;4.07;1.37;;;21.70;99.90;;;;;;5069157;28;20221;-58
2022/07/02 08:08:39;;;;;;;4.80;1.40;;;21.70;99.90;;;;;;5054977;28;20193;-58
2022/07/02 08:11:08;;;;;;;1.83;1.07;;;21.80;99.90;;;;;;5054911;28;20239;-58
2022/07/02 08:13:36;;;;;;;1.90;1.40;;;21.90;99.90;;;;;;5070382;28;20300;-59
2022/07/02 08:16:09;;;;;;;2.07;1.37;;;22.00;99.90;;;;;;5059028;28;20224;-59
2022/07/02 08:18:37;;;;;;;4.53;1.30;;;22.00;99.90;;;;;;5074613;28;20222;-59
2022/07/02 08:21:05;;;;;;;2.30;1.20;;;21.90;99.90;;;;;;5074291;28;20204;-58
2022/07/02 08:23:34;;;;;;;2.33;1.80;;;21.80;99.90;;;;;;5068189;28;20272;-58
2022/07/02 08:26:05;;;;;;;2.90;1.23;;;21.90;99.90;;;;;;5056722;28;20216;-58
2022/07/02 08:28:33;;;;;;;2.57;1.40;;;22.30;99.90;;;;;;5072224;28;20271;-59
2022/07/02 08:31:02;;;;;;;4.33;1.30;;;22.50;99.90;;;;;;5064685;28;20275;-60
2022/07/02 08:33:32;;;;;;;3.53;1.40;;;22.40;99.90;;;;;;5066391;28;20212;-59
2022/07/02 08:36:01;;;;;;;2.60;1.27;;;22.40;99.90;;;;;;5085385;28;20207;-60
2022/07/02 08:38:29;;;;;;;4.73;1.40;;;22.50;99.90;;;;;;5069542;28;20225;-59
2022/07/02 08:44:41;;;;;;;5.07;2.10;;;25.00;99.90;;;;;;5086703;28;20188;-58
2022/07/02 08:47:11;;;;;;;1.10;1.00;;;26.40;99.90;;;;;;5073556;28;20253;-59
2022/07/02 08:49:48;;;;;;;1.30;0.88;;;27.40;99.90;;;;;;5073710;28;20582;-59
2022/07/02 08:52:19;;;;;;;2.28;1.10;;;28.10;99.90;;;;;;5068733;28;20612;-59
2022/07/02 08:54:54;;;;;;;1.00;0.90;;;28.50;99.90;;;;;;5071731;28;20203;-60
2022/07/02 08:57:33;;;;;;;1.65;1.00;;;28.70;99.90;;;;;;5071319;28;20299;-59
2022/07/02 09:00:03;;;;;;;1.95;1.23;;;28.60;99.90;;;;;;5072415;28;20257;-59
2022/07/02 09:02:32;;;;;;;3.53;1.33;;;28.60;99.90;;;;;;5072097;28;20202;-59
2022/07/02 09:05:04;;;;;;;6.20;1.13;;;28.90;99.90;;;;;;5073658;28;20281;-60
2022/07/02 09:07:35;;;;;;;26.23;1.90;;;28.90;99.90;;;;;;5073440;28;20283;-59
2022/07/02 09:10:05;;;;;;;3.28;1.20;;;29.00;99.90;;;;;;5073508;28;20248;-59
2022/07/02 09:12:34;;;;;;;4.60;1.20;;;29.40;99.90;;;;;;5070741;28;20201;-59
2022/07/02 09:15:03;;;;;;;5.30;1.10;;;29.60;99.90;;;;;;5072742;28;20200;-59
2022/07/02 09:17:32;;;;;;;2.15;1.38;;;29.80;99.90;;;;;;5070135;28;20608;-59
2022/07/02 09:20:02;;;;;;;2.55;0.98;;;29.80;99.90;;;;;;5067754;28;20226;-59
2022/07/02 09:22:36;;;;;;;2.53;1.23;;;29.90;99.90;;;;;;5073503;28;20250;-59
2022/07/02 09:25:09;;;;;;;1.52;1.02;;;29.60;99.90;;;;;;5073058;28;20266;-58
2022/07/02 09:27:37;;;;;;;1.13;1.02;;;29.40;99.90;;;;;;5071619;28;20223;-59
2022/07/02 09:30:08;;;;;;;2.97;1.13;;;29.20;99.90;;;;;;5066872;28;20280;-59
2022/07/02 09:32:41;;;;;;;1.83;1.30;;;29.30;99.90;;;;;;5072132;28;20200;-59
2022/07/02 09:35:21;;;;;;;1.70;1.30;;;29.80;99.90;;;;;;5073382;28;20187;-59
2022/07/02 09:37:51;;;;;;;1.02;0.65;;;30.20;99.90;;;;;;5073001;28;20198;-60
2022/07/02 09:40:20;;;;;;;4.65;1.10;;;30.50;99.90;;;;;;5073237;28;20195;-59
2022/07/02 09:42:49;;;;;;;0.88;0.88;;;30.80;99.50;;;;;;5072863;28;20199;-60
2022/07/02 09:45:18;;;;;;;1.30;1.05;;;30.90;99.90;;;;;;5072912;28;20279;-60
2022/07/02 09:47:49;;;;;;;1.33;0.90;;;30.80;99.80;;;;;;5071727;28;20220;-59
2022/07/02 09:50:21;;;;;;;1.30;1.20;;;30.20;99.90;;;;;;5072921;28;20538;-59
2022/07/02 09:52:50;;;;;;;2.13;1.00;;;29.90;99.90;;;;;;5072994;28;20273;-59
2022/07/02 09:55:23;;;;;;;3.67;0.90;;;28.90;99.20;;;;;;5052734;28;20271;-59
2022/07/02 09:58:29;;;;;;;1.27;1.17;;;28.40;99.90;;;;;;5066090;28;20271;-58
2022/07/02 10:01:03;;;;;;;3.15;1.23;;;28.60;99.90;;;;;;5056811;28;20203;-59
2022/07/02 10:03:53;;;;;;;1.40;1.30;;;29.10;99.90;;;;;;5051057;28;20232;-59
2022/07/02 10:06:23;;;;;;;1.67;1.30;;;29.50;99.90;;;;;;5057296;28;20185;-59
2022/07/02 10:08:56;;;;;;;2.38;1.10;;;29.60;99.30;;;;;;5071318;28;20256;-59
2022/07/02 10:11:24;;;;;;;2.60;1.20;;;28.70;99.90;;;;;;5073153;28;20219;-59
2022/07/02 10:13:56;;;;;;;1.38;1.00;;;28.00;99.20;;;;;;5072313;28;20248;-58
2022/07/02 10:16:26;;;;;;;1.30;1.10;;;27.80;99.90;;;;;;5067506;28;20218;-59
2022/07/02 10:18:58;;;;;;;3.35;1.30;;;27.90;99.90;;;;;;5071139;28;20212;-59
2022/07/02 10:21:29;;;;;;;1.88;1.05;;;28.10;99.90;;;;;;5058601;28;20276;-60
2022/07/02 10:23:59;;;;;;;1.20;1.10;;;28.70;99.80;;;;;;5072978;28;20206;-59
2022/07/02 10:26:29;;;;;;;0.95;0.95;;;29.00;99.20;;;;;;5076185;28;20199;-59
2022/07/02 10:28:58;;;;;;;1.70;1.00;;;29.40;99.90;;;;;;5076549;28;20304;-59
2022/07/02 10:31:26;;;;;;;0.88;0.88;;;29.60;99.20;;;;;;5075049;28;20223;-59
2022/07/02 10:34:05;;;;;;;0.93;0.80;;;29.30;98.60;;;;;;5075883;28;20211;-59
2022/07/02 10:36:35;;;;;;;0.70;0.70;;;29.50;99.90;;;;;;5070724;28;20272;-59
2022/07/02 10:39:05;;;;;;;2.17;0.90;;;29.60;98.10;;;;;;5076047;28;20227;-59
2022/07/02 10:41:34;;;;;;;0.95;0.90;;;29.40;99.50;;;;;;5075847;28;20662;-58
2022/07/02 10:44:03;;;;;;;0.68;0.68;;;28.70;99.10;;;;;;5075701;28;20282;-59
2022/07/02 10:46:36;;;;;;;0.82;0.52;;;28.80;99.90;;;;;;5075549;28;20275;-59
2022/07/02 10:49:05;;;;;;;0.80;0.80;;;29.30;99.90;;;;;;5072803;28;20678;-59
2022/07/02 10:51:37;;;;;;;1.98;0.82;;;29.60;99.40;;;;;;5063688;28;20216;-59
2022/07/02 10:54:08;;;;;;;6.05;0.80;;;29.80;98.50;;;;;;5055859;28;20585;-59
2022/07/02 10:56:46;;;;;;;1.85;0.82;;;29.30;97.60;;;;;;5070903;28;20288;-59
2022/07/02 10:59:21;;;;;;;0.75;0.75;;;29.10;99.60;;;;;;5074228;28;20678;-58
2022/07/02 11:02:01;;;;;;;1.95;0.70;;;28.30;97.60;;;;;;5075448;28;20198;-58
2022/07/02 11:04:29;;;;;;;1.48;0.82;;;27.40;98.50;;;;;;5074872;28;21016;-58
2022/07/02 11:07:10;;;;;;;0.70;0.70;;;27.30;99.90;;;;;;5075752;28;20231;-58
2022/07/02 11:09:48;;;;;;;1.57;1.00;;;26.90;98.30;;;;;;5075526;28;20200;-58
2022/07/02 11:12:24;;;;;;;1.07;0.80;;;26.40;99.60;;;;;;5064788;28;20222;-58
2022/07/02 11:14:55;;;;;;;1.87;1.00;;;26.20;98.80;;;;;;5074059;28;20314;-58
2022/07/02 11:17:48;;;;;;;1.00;0.80;;;26.60;99.90;;;;;;5075240;28;20203;-58
2022/07/02 11:20:24;;;;;;;0.97;0.97;;;26.80;99.90;;;;;;5070323;28;20630;-58
2022/07/02 11:22:55;;;;;;;0.90;0.80;;;26.90;99.90;;;;;;5075370;28;20196;-59
2022/07/02 11:25:24;;;;;;;0.80;0.80;;;27.10;99.80;;;;;;5054117;28;20659;-58
2022/07/02 11:27:57;;;;;;;0.87;0.87;;;27.00;99.30;;;;;;5074576;28;20219;-58
2022/07/02 11:30:27;;;;;;;0.60;0.60;;;26.80;99.90;;;;;;5075178;28;20242;-58
2022/07/02 11:32:55;;;;;;;1.47;0.80;;;26.40;99.90;;;;;;5075095;28;20260;-58
2022/07/02 11:35:23;;;;;;;2.93;0.83;;;26.40;99.80;;;;;;5074752;28;20230;-58
2022/07/02 11:38:01;;;;;;;1.50;0.83;;;26.30;99.90;;;;;;5074449;28;20602;-58
2022/07/02 11:40:29;;;;;;;1.20;0.87;;;26.00;99.90;;;;;;5071907;28;20226;-58
2022/07/02 11:42:58;;;;;;;0.80;0.80;;;25.80;99.90;;;;;;5074515;28;20196;-58
2022/07/02 11:45:26;;;;;;;0.80;0.80;;;26.20;99.90;;;;;;5074451;28;20698;-58
2022/07/02 11:47:54;;;;;;;2.10;0.77;;;26.40;99.80;;;;;;5070348;28;20203;-58
2022/07/02 11:50:31;;;;;;;0.67;0.63;;;26.20;99.90;;;;;;5067754;28;20203;-58
2022/07/02 11:53:01;;;;;;;1.80;0.77;;;26.00;99.90;;;;;;5075687;28;20316;-58
2022/07/02 11:55:29;;;;;;;2.00;1.10;;;26.00;99.90;;;;;;5070395;28;20284;-58
2022/07/02 11:57:58;;;;;;;1.00;1.00;;;26.00;99.90;;;;;;5072496;28;20608;-58
2022/07/02 12:00:31;;;;;;;1.30;0.80;;;25.70;99.90;;;;;;5071400;28;20306;-58
2022/07/02 12:03:08;;;;;;;1.00;0.90;;;25.50;99.90;;;;;;5074518;28;20253;-58
2022/07/02 12:05:36;;;;;;;0.87;0.87;;;25.20;99.90;;;;;;5068994;28;20235;-58
2022/07/02 12:08:07;;;;;;;2.50;0.80;;;25.50;99.90;;;;;;5074108;28;20274;-58
2022/07/02 12:10:39;;;;;;;1.40;0.90;;;25.80;99.90;;;;;;5068738;28;20195;-58
2022/07/02 12:13:08;;;;;;;1.73;1.00;;;25.50;99.90;;;;;;5071373;28;20229;-58
2022/07/02 12:15:43;;;;;;;2.43;0.80;;;25.20;99.90;;;;;;5071986;28;20210;-58
2022/07/02 12:18:17;;;;;;;1.00;1.00;;;25.20;99.90;;;;;;5073804;28;20562;-58
2022/07/02 12:20:45;;;;;;;1.23;0.90;;;25.50;99.90;;;;;;5068586;28;20293;-58
2022/07/02 12:23:19;;;;;;;1.00;0.90;;;25.40;99.90;;;;;;5068643;28;20252;-59
2022/07/02 12:25:50;;;;;;;1.67;0.90;;;25.20;99.90;;;;;;5068304;28;20208;-58
2022/07/02 12:31:05;;;;;;;2.83;1.00;;;25.00;99.90;;;;;;5043077;28;20228;-58
2022/07/02 12:33:34;;;;;;;0.70;0.70;;;25.30;99.90;;;;;;5072715;28;20199;-58
2022/07/02 12:36:04;;;;;;;0.93;0.87;;;25.40;99.90;;;;;;5072323;28;20323;-58
2022/07/02 12:38:44;;;;;;;1.00;0.90;;;25.50;99.90;;;;;;5069812;28;20275;-58
2022/07/02 12:41:12;;;;;;;0.87;0.80;;;25.70;99.90;;;;;;5073400;28;20270;-58
2022/07/02 12:43:41;;;;;;;0.90;0.90;;;25.80;99.90;;;;;;5059528;28;20275;-58
2022/07/02 12:46:09;;;;;;;1.03;0.90;;;26.00;99.90;;;;;;5069400;28;20187;-58
2022/07/02 12:48:44;;;;;;;1.93;0.90;;;25.80;99.90;;;;;;5073126;28;20200;-58
2022/07/02 12:51:13;;;;;;;1.20;1.00;;;25.80;99.90;;;;;;5073697;28;20207;-59
2022/07/02 12:53:43;;;;;;;1.47;1.10;;;25.60;99.90;;;;;;5071281;28;20187;-59
2022/07/02 12:56:11;;;;;;;1.63;0.87;;;25.60;99.90;;;;;;5073093;28;20203;-59
2022/07/02 12:58:40;;;;;;;1.03;0.90;;;25.80;99.90;;;;;;5072288;28;20258;-59
2022/07/02 13:01:12;;;;;;;1.83;0.80;;;26.00;99.90;;;;;;5067746;28;20233;-59
2022/07/02 13:03:45;;;;;;;1.17;1.07;;;26.00;99.90;;;;;;5067551;28;20278;-58
2022/07/02 13:06:16;;;;;;;2.37;0.90;;;25.90;99.90;;;;;;5063319;28;20267;-58
2022/07/02 13:08:46;;;;;;;2.10;0.97;;;25.80;99.90;;;;;;5070050;28;20669;-58
2022/07/02 13:11:15;;;;;;;3.27;0.90;;;25.80;99.90;;;;;;5072844;28;20203;-58
2022/07/02 13:13:43;;;;;;;1.50;0.87;;;26.00;99.90;;;;;;5072651;28;20188;-58
2022/07/02 13:16:11;;;;;;;0.87;0.70;;;26.30;99.90;;;;;;5067758;28;20207;-59
2022/07/02 13:18:40;;;;;;;1.10;0.80;;;26.60;99.90;;;;;;5070364;28;20196;-59
2022/07/02 13:21:08;;;;;;;0.90;0.90;;;26.50;99.90;;;;;;5066834;28;20208;-58
2022/07/02 13:23:36;;;;;;;1.07;0.80;;;26.60;99.90;;;;;;5067784;28;20203;-59
2022/07/02 13:26:06;;;;;;;0.83;0.80;;;26.90;99.90;;;;;;5058459;28;20686;-58
2022/07/02 13:28:35;;;;;;;0.90;0.90;;;26.90;99.60;;;;;;5070592;28;20582;-57
2022/07/02 13:31:03;;;;;;;1.47;0.80;;;26.90;99.90;;;;;;5068986;28;20196;-58
2022/07/02 13:33:31;;;;;;;1.17;1.07;;;27.00;99.90;;;;;;5069492;28;20227;-57